sensor_id;sensor_type;location;lat;lon;timestamp;temperature;humidity
23556;DHT22;11956;53.184;8.578;2023-01-20T00:02:33;0.10;99.90
23556;DHT22;11956;53.184;8.578;2023-01-20T00:05:34;0.10;99.90
23556;DHT22;11956;53.184;8.578;2023-01-20T00:08:34;0.10;99.90
23556;DHT22;11956;53.184;8.578;2023-01-20T00:11:35;0.10;99.90
23556;DHT22;11956;53.184;8.578;2023-01-20T00:14:36;0.10;99.90
23556;DHT22;11956;53.184;8.578;2023-01-20T00:17:37;0.10;99.90
23556;DHT22;11956;53.184;8.578;2023-01-20T00:20:38;0.10;99.90
23556;DHT22;11956;53.184;8.578;2023-01-20T00:23:40;0.10;99.90
23556;DHT22;11956;53.184;8.578;2023-01-20T00:26:40;0.10;99.90
23556;DHT22;11956;53.184;8.578;2023-01-20T00:29:41;0.10;99.90
23556;DHT22;11956;53.184;8.578;2023-01-20T00:32:43;0.10;99.90
23556;DHT22;11956;53.184;8.578;2023-01-20T00:35:44;0.10;99.90
23556;DHT22;11956;53.184;8.578;2023-01-20T00:38:46;0.10;99.90
23556;DHT22;11956;53.184;8.578;2023-01-20T00:41:47;0.00;99.90
23556;DHT22;11956;53.184;8.578;2023-01-20T00:44:48;0.00;99.90
23556;DHT22;11956;53.184;8.578;2023-01-20T00:47:48;0.00;99.90
23556;DHT22;11956;53.184;8.578;2023-01-20T00:50:49;0.00;99.90
23556;DHT22;11956;53.184;8.578;2023-01-20T00:53:50;0.00;99.90
23556;DHT22;11956;53.184;8.578;2023-01-20T00:56:51;-0.10;99.90
23556;DHT22;11956;53.184;8.578;2023-01-20T00:59:52;-0.10;99.90
23556;DHT22;11956;53.184;8.578;2023-01-20T01:02:53;-0.10;99.90
23556;DHT22;11956;53.184;8.578;2023-01-20T01:05:58;-0.10;99.90
23556;DHT22;11956;53.184;8.578;2023-01-20T01:09:05;-0.20;99.90
23556;DHT22;11956;53.184;8.578;2023-01-20T01:12:06;-0.20;99.90
23556;DHT22;11956;53.184;8.578;2023-01-20T01:15:07;-0.20;99.90
23556;DHT22;11956;53.184;8.578;2023-01-20T01:18:08;-0.20;99.90
23556;DHT22;11956;53.184;8.578;2023-01-20T01:21:12;-0.20;99.90
23556;DHT22;11956;53.184;8.578;2023-01-20T01:24:14;-0.20;99.90
23556;DHT22;11956;53.184;8.578;2023-01-20T01:27:14;-0.10;99.90
23556;DHT22;11956;53.184;8.578;2023-01-20T01:30:15;-0.10;99.90
23556;DHT22;11956;53.184;8.578;2023-01-20T01:33:16;-0.10;99.90
23556;DHT22;11956;53.184;8.578;2023-01-20T01:36:17;-0.20;99.90
23556;DHT22;11956;53.184;8.578;2023-01-20T01:39:18;-0.10;99.90
23556;DHT22;11956;53.184;8.578;2023-01-20T01:42:23;-0.10;99.90
23556;DHT22;11956;53.184;8.578;2023-01-20T01:45:27;0.00;99.90
23556;DHT22;11956;53.184;8.578;2023-01-20T01:48:30;0.00;99.90
23556;DHT22;11956;53.184;8.578;2023-01-20T01:51:34;0.00;99.90
23556;DHT22;11956;53.184;8.578;2023-01-20T01:54:39;0.00;99.90
23556;DHT22;11956;53.184;8.578;2023-01-20T01:57:42;-0.10;99.90
23556;DHT22;11956;53.184;8.578;2023-01-20T02:00:43;-0.20;99.90
23556;DHT22;11956;53.184;8.578;2023-01-20T02:07:03;0.00;99.90
23556;DHT22;11956;53.184;8.578;2023-01-20T02:10:06;0.20;99.90
23556;DHT22;11956;53.184;8.578;2023-01-20T02:13:07;0.30;99.90
23556;DHT22;11956;53.184;8.578;2023-01-20T02:23:59;0.70;99.90
23556;DHT22;11956;53.184;8.578;2023-01-20T02:27:13;0.70;99.90
23556;DHT22;11956;53.184;8.578;2023-01-20T02:34:29;0.90;99.90
23556;DHT22;11956;53.184;8.578;2023-01-20T02:38:09;1.00;99.90
23556;DHT22;11956;53.184;8.578;2023-01-20T02:44:40;1.00;99.90
23556;DHT22;11956;53.184;8.578;2023-01-20T02:54:27;1.20;99.90
23556;DHT22;11956;53.184;8.578;2023-01-20T02:57:34;1.20;99.90
23556;DHT22;11956;53.184;8.578;2023-01-20T03:01:10;1.20;99.90
23556;DHT22;11956;53.184;8.578;2023-01-20T03:04:17;1.30;99.90
23556;DHT22;11956;53.184;8.578;2023-01-20T03:07:21;1.30;99.90
23556;DHT22;11956;53.184;8.578;2023-01-20T03:10:26;1.30;99.90
23556;DHT22;11956;53.184;8.578;2023-01-20T03:16:45;1.40;99.90
23556;DHT22;11956;53.184;8.578;2023-01-20T03:19:48;1.40;99.90
23556;DHT22;11956;53.184;8.578;2023-01-20T03:22:49;1.50;99.90
23556;DHT22;11956;53.184;8.578;2023-01-20T03:25:50;1.40;99.90
23556;DHT22;11956;53.184;8.578;2023-01-20T03:28:51;1.50;99.90
23556;DHT22;11956;53.184;8.578;2023-01-20T03:31:56;1.50;99.90
23556;DHT22;11956;53.184;8.578;2023-01-20T03:34:58;1.60;99.90
23556;DHT22;11956;53.184;8.578;2023-01-20T03:37:59;1.50;99.90
23556;DHT22;11956;53.184;8.578;2023-01-20T03:41:10;1.60;99.90
23556;DHT22;11956;53.184;8.578;2023-01-20T03:51:13;1.50;99.90
23556;DHT22;11956;53.184;8.578;2023-01-20T03:54:25;1.50;99.90
23556;DHT22;11956;53.184;8.578;2023-01-20T03:57:33;1.50;99.90
23556;DHT22;11956;53.184;8.578;2023-01-20T04:00:42;1.60;99.90
23556;DHT22;11956;53.184;8.578;2023-01-20T04:03:47;1.60;99.90
23556;DHT22;11956;53.184;8.578;2023-01-20T04:06:50;1.60;99.90
23556;DHT22;11956;53.184;8.578;2023-01-20T04:09:55;1.60;99.90
23556;DHT22;11956;53.184;8.578;2023-01-20T04:12:57;1.60;99.90
23556;DHT22;11956;53.184;8.578;2023-01-20T04:15:59;1.70;99.90
23556;DHT22;11956;53.184;8.578;2023-01-20T04:19:01;1.70;99.90
23556;DHT22;11956;53.184;8.578;2023-01-20T04:25:33;1.70;99.90
23556;DHT22;11956;53.184;8.578;2023-01-20T04:28:34;1.70;99.90
23556;DHT22;11956;53.184;8.578;2023-01-20T04:31:35;1.70;99.90
23556;DHT22;11956;53.184;8.578;2023-01-20T04:34:36;1.80;99.90
23556;DHT22;11956;53.184;8.578;2023-01-20T04:37:37;1.80;99.90
23556;DHT22;11956;53.184;8.578;2023-01-20T04:40:38;1.80;99.90
23556;DHT22;11956;53.184;8.578;2023-01-20T04:43:42;1.80;99.90
23556;DHT22;11956;53.184;8.578;2023-01-20T04:46:45;1.80;99.90
23556;DHT22;11956;53.184;8.578;2023-01-20T04:49:46;1.80;99.90
23556;DHT22;11956;53.184;8.578;2023-01-20T04:52:47;1.80;99.90
23556;DHT22;11956;53.184;8.578;2023-01-20T04:55:48;1.80;99.90
23556;DHT22;11956;53.184;8.578;2023-01-20T04:58:49;1.80;99.90
23556;DHT22;11956;53.184;8.578;2023-01-20T05:01:50;1.80;99.90
23556;DHT22;11956;53.184;8.578;2023-01-20T05:04:51;1.80;99.90
23556;DHT22;11956;53.184;8.578;2023-01-20T05:07:53;1.80;99.90
23556;DHT22;11956;53.184;8.578;2023-01-20T05:10:54;1.80;99.90
23556;DHT22;11956;53.184;8.578;2023-01-20T05:13:55;1.80;99.90
23556;DHT22;11956;53.184;8.578;2023-01-20T05:16:56;1.80;99.90
23556;DHT22;11956;53.184;8.578;2023-01-20T05:19:57;1.80;99.90
23556;DHT22;11956;53.184;8.578;2023-01-20T05:22:58;1.90;99.90
23556;DHT22;11956;53.184;8.578;2023-01-20T05:25:59;1.90;99.90
23556;DHT22;11956;53.184;8.578;2023-01-20T05:29:00;2.00;99.90
23556;DHT22;11956;53.184;8.578;2023-01-20T05:32:02;2.00;99.90
23556;DHT22;11956;53.184;8.578;2023-01-20T05:35:03;2.00;99.90
23556;DHT22;11956;53.184;8.578;2023-01-20T05:38:05;2.00;99.90
23556;DHT22;11956;53.184;8.578;2023-01-20T05:41:07;1.90;99.90
23556;DHT22;11956;53.184;8.578;2023-01-20T05:44:09;2.00;99.90
23556;DHT22;11956;53.184;8.578;2023-01-20T05:47:10;2.00;99.90
23556;DHT22;11956;53.184;8.578;2023-01-20T05:50:11;2.10;99.90
23556;DHT22;11956;53.184;8.578;2023-01-20T05:53:12;2.10;99.90
23556;DHT22;11956;53.184;8.578;2023-01-20T05:56:13;2.10;99.90
23556;DHT22;11956;53.184;8.578;2023-01-20T05:59:15;2.10;99.90
23556;DHT22;11956;53.184;8.578;2023-01-20T06:02:16;2.10;99.90
23556;DHT22;11956;53.184;8.578;2023-01-20T06:05:18;2.20;99.90
23556;DHT22;11956;53.184;8.578;2023-01-20T06:08:19;2.20;99.90
23556;DHT22;11956;53.184;8.578;2023-01-20T06:11:20;2.20;99.90
23556;DHT22;11956;53.184;8.578;2023-01-20T06:14:21;2.20;99.90
23556;DHT22;11956;53.184;8.578;2023-01-20T06:17:22;2.20;99.90
23556;DHT22;11956;53.184;8.578;2023-01-20T06:20:23;2.30;99.90
23556;DHT22;11956;53.184;8.578;2023-01-20T06:23:25;2.30;99.90
23556;DHT22;11956;53.184;8.578;2023-01-20T06:26:26;2.30;99.90
23556;DHT22;11956;53.184;8.578;2023-01-20T06:29:27;2.30;99.90
23556;DHT22;11956;53.184;8.578;2023-01-20T06:32:29;2.20;99.90
23556;DHT22;11956;53.184;8.578;2023-01-20T06:35:29;2.20;99.90
23556;DHT22;11956;53.184;8.578;2023-01-20T06:38:32;2.10;99.90
23556;DHT22;11956;53.184;8.578;2023-01-20T06:41:33;2.10;99.90
23556;DHT22;11956;53.184;8.578;2023-01-20T06:44:34;2.20;99.90
23556;DHT22;11956;53.184;8.578;2023-01-20T06:47:35;2.20;99.90
23556;DHT22;11956;53.184;8.578;2023-01-20T06:50:36;2.20;99.90
23556;DHT22;11956;53.184;8.578;2023-01-20T06:53:37;2.20;99.90
23556;DHT22;11956;53.184;8.578;2023-01-20T06:56:37;2.20;99.90
23556;DHT22;11956;53.184;8.578;2023-01-20T06:59:39;2.10;99.90
23556;DHT22;11956;53.184;8.578;2023-01-20T07:02:39;2.20;99.90
23556;DHT22;11956;53.184;8.578;2023-01-20T07:05:40;2.20;99.90
23556;DHT22;11956;53.184;8.578;2023-01-20T07:08:43;2.20;99.90
23556;DHT22;11956;53.184;8.578;2023-01-20T07:11:44;2.20;99.90
23556;DHT22;11956;53.184;8.578;2023-01-20T07:14:45;2.30;99.90
23556;DHT22;11956;53.184;8.578;2023-01-20T07:17:46;2.30;99.90
23556;DHT22;11956;53.184;8.578;2023-01-20T07:20:52;2.30;99.90
23556;DHT22;11956;53.184;8.578;2023-01-20T07:23:59;2.30;99.90
23556;DHT22;11956;53.184;8.578;2023-01-20T07:27:01;2.20;99.90
23556;DHT22;11956;53.184;8.578;2023-01-20T07:30:02;2.20;99.90
23556;DHT22;11956;53.184;8.578;2023-01-20T07:33:03;2.20;99.90
23556;DHT22;11956;53.184;8.578;2023-01-20T07:36:06;2.30;99.90
23556;DHT22;11956;53.184;8.578;2023-01-20T07:39:11;2.30;99.90
23556;DHT22;11956;53.184;8.578;2023-01-20T07:42:13;2.30;99.90
23556;DHT22;11956;53.184;8.578;2023-01-20T07:45:14;2.30;99.90
23556;DHT22;11956;53.184;8.578;2023-01-20T07:48:15;2.20;99.90
23556;DHT22;11956;53.184;8.578;2023-01-20T07:51:16;2.30;99.90
23556;DHT22;11956;53.184;8.578;2023-01-20T07:54:17;2.30;99.90
23556;DHT22;11956;53.184;8.578;2023-01-20T07:57:18;2.40;99.90
23556;DHT22;11956;53.184;8.578;2023-01-20T08:00:19;2.40;99.90
23556;DHT22;11956;53.184;8.578;2023-01-20T08:03:21;2.30;99.90
23556;DHT22;11956;53.184;8.578;2023-01-20T08:06:24;2.40;99.90
23556;DHT22;11956;53.184;8.578;2023-01-20T08:09:25;2.40;99.90
23556;DHT22;11956;53.184;8.578;2023-01-20T08:12:27;2.40;99.90
23556;DHT22;11956;53.184;8.578;2023-01-20T08:15:29;2.30;99.90
23556;DHT22;11956;53.184;8.578;2023-01-20T08:18:32;2.40;99.90
23556;DHT22;11956;53.184;8.578;2023-01-20T08:21:33;2.30;99.90
23556;DHT22;11956;53.184;8.578;2023-01-20T08:24:34;2.40;99.90
23556;DHT22;11956;53.184;8.578;2023-01-20T08:27:35;2.40;99.90
23556;DHT22;11956;53.184;8.578;2023-01-20T08:30:36;2.40;99.90
23556;DHT22;11956;53.184;8.578;2023-01-20T08:33:37;2.40;99.90
23556;DHT22;11956;53.184;8.578;2023-01-20T08:36:40;2.50;99.90
23556;DHT22;11956;53.184;8.578;2023-01-20T08:39:41;2.50;99.90
23556;DHT22;11956;53.184;8.578;2023-01-20T08:42:42;2.50;99.90
23556;DHT22;11956;53.184;8.578;2023-01-20T08:45:43;2.60;99.90
23556;DHT22;11956;53.184;8.578;2023-01-20T08:48:44;2.60;99.90
23556;DHT22;11956;53.184;8.578;2023-01-20T08:51:45;2.60;99.90
23556;DHT22;11956;53.184;8.578;2023-01-20T08:54:46;2.60;99.90
23556;DHT22;11956;53.184;8.578;2023-01-20T08:57:47;2.70;99.90
23556;DHT22;11956;53.184;8.578;2023-01-20T09:00:48;2.90;99.90
23556;DHT22;11956;53.184;8.578;2023-01-20T09:03:49;2.90;99.90
23556;DHT22;11956;53.184;8.578;2023-01-20T09:06:50;2.80;99.90
23556;DHT22;11956;53.184;8.578;2023-01-20T09:09:52;2.70;99.90
23556;DHT22;11956;53.184;8.578;2023-01-20T09:12:53;2.70;99.90
23556;DHT22;11956;53.184;8.578;2023-01-20T09:15:53;2.80;99.90
23556;DHT22;11956;53.184;8.578;2023-01-20T09:18:54;2.80;99.90
23556;DHT22;11956;53.184;8.578;2023-01-20T09:21:55;3.00;99.90
23556;DHT22;11956;53.184;8.578;2023-01-20T09:24:56;3.10;99.90
23556;DHT22;11956;53.184;8.578;2023-01-20T09:28:00;3.30;99.90
23556;DHT22;11956;53.184;8.578;2023-01-20T09:31:07;3.50;99.90
23556;DHT22;11956;53.184;8.578;2023-01-20T09:34:09;3.60;99.90
23556;DHT22;11956;53.184;8.578;2023-01-20T09:37:11;3.70;99.90
23556;DHT22;11956;53.184;8.578;2023-01-20T09:41:10;3.80;99.90
23556;DHT22;11956;53.184;8.578;2023-01-20T09:45:18;3.80;99.90
23556;DHT22;11956;53.184;8.578;2023-01-20T09:49:03;3.90;99.90
23556;DHT22;11956;53.184;8.578;2023-01-20T09:55:50;4.10;99.90
23556;DHT22;11956;53.184;8.578;2023-01-20T09:59:17;4.20;99.90
23556;DHT22;11956;53.184;8.578;2023-01-20T10:02:25;4.20;99.90
23556;DHT22;11956;53.184;8.578;2023-01-20T10:05:32;4.10;99.90
23556;DHT22;11956;53.184;8.578;2023-01-20T10:09:18;4.10;99.90
23556;DHT22;11956;53.184;8.578;2023-01-20T10:12:37;4.20;99.90
23556;DHT22;11956;53.184;8.578;2023-01-20T10:15:53;4.30;99.90
23556;DHT22;11956;53.184;8.578;2023-01-20T10:19:00;4.30;99.90
23556;DHT22;11956;53.184;8.578;2023-01-20T10:22:09;4.40;99.90
23556;DHT22;11956;53.184;8.578;2023-01-20T10:25:29;4.40;99.90
23556;DHT22;11956;53.184;8.578;2023-01-20T10:28:40;4.30;99.90
23556;DHT22;11956;53.184;8.578;2023-01-20T10:31:50;4.30;99.90
23556;DHT22;11956;53.184;8.578;2023-01-20T10:34:57;4.40;99.90
23556;DHT22;11956;53.184;8.578;2023-01-20T10:38:05;4.40;99.90
23556;DHT22;11956;53.184;8.578;2023-01-20T10:41:16;4.40;99.90
23556;DHT22;11956;53.184;8.578;2023-01-20T10:44:21;4.40;99.90
23556;DHT22;11956;53.184;8.578;2023-01-20T10:47:46;4.40;99.90
23556;DHT22;11956;53.184;8.578;2023-01-20T10:50:56;4.40;99.90
23556;DHT22;11956;53.184;8.578;2023-01-20T10:57:53;4.70;99.90
23556;DHT22;11956;53.184;8.578;2023-01-20T11:01:00;4.70;99.90
23556;DHT22;11956;53.184;8.578;2023-01-20T11:04:04;4.70;99.90
23556;DHT22;11956;53.184;8.578;2023-01-20T11:07:08;4.90;99.90
23556;DHT22;11956;53.184;8.578;2023-01-20T11:10:19;4.90;99.90
23556;DHT22;11956;53.184;8.578;2023-01-20T11:13:21;5.10;99.90
23556;DHT22;11956;53.184;8.578;2023-01-20T11:16:25;5.30;99.90
23556;DHT22;11956;53.184;8.578;2023-01-20T11:19:47;5.30;99.90
23556;DHT22;11956;53.184;8.578;2023-01-20T11:22:50;5.20;99.90
23556;DHT22;11956;53.184;8.578;2023-01-20T11:26:01;5.20;99.90
23556;DHT22;11956;53.184;8.578;2023-01-20T11:35:32;5.10;99.90
23556;DHT22;11956;53.184;8.578;2023-01-20T11:38:45;5.20;99.90
23556;DHT22;11956;53.184;8.578;2023-01-20T11:41:47;5.10;99.90
23556;DHT22;11956;53.184;8.578;2023-01-20T11:44:56;5.10;99.90
23556;DHT22;11956;53.184;8.578;2023-01-20T11:51:24;5.00;99.90
23556;DHT22;11956;53.184;8.578;2023-01-20T11:54:28;5.10;99.90
23556;DHT22;11956;53.184;8.578;2023-01-20T11:57:30;5.20;99.90
23556;DHT22;11956;53.184;8.578;2023-01-20T12:00:45;5.20;99.90
23556;DHT22;11956;53.184;8.578;2023-01-20T12:04:08;5.20;99.90
23556;DHT22;11956;53.184;8.578;2023-01-20T12:07:20;4.90;99.90
23556;DHT22;11956;53.184;8.578;2023-01-20T12:10:33;4.90;99.90
23556;DHT22;11956;53.184;8.578;2023-01-20T12:13:38;4.70;99.90
23556;DHT22;11956;53.184;8.578;2023-01-20T12:21:12;4.90;99.90
23556;DHT22;11956;53.184;8.578;2023-01-20T12:24:21;5.10;99.90
23556;DHT22;11956;53.184;8.578;2023-01-20T12:27:29;4.80;99.90
23556;DHT22;11956;53.184;8.578;2023-01-20T12:31:18;4.70;99.90
23556;DHT22;11956;53.184;8.578;2023-01-20T12:34:15;4.70;99.90
23556;DHT22;11956;53.184;8.578;2023-01-20T12:40:54;4.20;99.90
23556;DHT22;11956;53.184;8.578;2023-01-20T12:55:01;3.80;99.90
23556;DHT22;11956;53.184;8.578;2023-01-20T13:15:44;4.50;99.90
23556;DHT22;11956;53.184;8.578;2023-01-20T13:19:15;4.50;99.90
23556;DHT22;11956;53.184;8.578;2023-01-20T13:22:21;4.50;99.90
23556;DHT22;11956;53.184;8.578;2023-01-20T13:25:22;4.40;99.90
23556;DHT22;11956;53.184;8.578;2023-01-20T13:28:26;4.50;99.90
23556;DHT22;11956;53.184;8.578;2023-01-20T13:31:44;4.60;99.90
23556;DHT22;11956;53.184;8.578;2023-01-20T13:34:45;4.70;99.90
23556;DHT22;11956;53.184;8.578;2023-01-20T13:37:53;4.70;99.90
23556;DHT22;11956;53.184;8.578;2023-01-20T13:40:58;4.00;99.90
23556;DHT22;11956;53.184;8.578;2023-01-20T13:44:38;3.70;99.90
23556;DHT22;11956;53.184;8.578;2023-01-20T13:54:36;4.10;99.90
23556;DHT22;11956;53.184;8.578;2023-01-20T13:57:40;4.30;99.90
23556;DHT22;11956;53.184;8.578;2023-01-20T14:00:42;4.30;99.90
23556;DHT22;11956;53.184;8.578;2023-01-20T14:03:43;4.40;99.90
23556;DHT22;11956;53.184;8.578;2023-01-20T14:07:25;4.40;99.90
23556;DHT22;11956;53.184;8.578;2023-01-20T14:10:29;4.40;99.90
23556;DHT22;11956;53.184;8.578;2023-01-20T14:13:30;4.30;99.90
23556;DHT22;11956;53.184;8.578;2023-01-20T14:16:36;4.40;99.90
23556;DHT22;11956;53.184;8.578;2023-01-20T14:19:38;4.20;99.90
23556;DHT22;11956;53.184;8.578;2023-01-20T14:22:38;4.20;99.90
23556;DHT22;11956;53.184;8.578;2023-01-20T14:25:39;4.20;99.90
23556;DHT22;11956;53.184;8.578;2023-01-20T14:28:46;4.10;99.90
23556;DHT22;11956;53.184;8.578;2023-01-20T14:31:48;4.20;99.90
23556;DHT22;11956;53.184;8.578;2023-01-20T14:34:50;4.20;99.90
23556;DHT22;11956;53.184;8.578;2023-01-20T14:37:52;4.20;99.90
23556;DHT22;11956;53.184;8.578;2023-01-20T14:40:52;4.30;99.90
23556;DHT22;11956;53.184;8.578;2023-01-20T14:43:54;4.30;99.90
23556;DHT22;11956;53.184;8.578;2023-01-20T14:47:00;4.00;99.90
23556;DHT22;11956;53.184;8.578;2023-01-20T14:50:02;4.00;99.90
23556;DHT22;11956;53.184;8.578;2023-01-20T14:53:03;3.80;99.90
23556;DHT22;11956;53.184;8.578;2023-01-20T14:56:06;3.80;99.90
23556;DHT22;11956;53.184;8.578;2023-01-20T14:59:20;3.70;99.90
23556;DHT22;11956;53.184;8.578;2023-01-20T15:02:33;3.80;99.90
23556;DHT22;11956;53.184;8.578;2023-01-20T15:05:35;3.80;99.90
23556;DHT22;11956;53.184;8.578;2023-01-20T15:11:40;3.90;99.90
23556;DHT22;11956;53.184;8.578;2023-01-20T15:14:41;3.90;99.90
23556;DHT22;11956;53.184;8.578;2023-01-20T15:21:24;3.90;99.90
23556;DHT22;11956;53.184;8.578;2023-01-20T15:24:31;3.80;99.90
23556;DHT22;11956;53.184;8.578;2023-01-20T15:27:34;3.70;99.90
23556;DHT22;11956;53.184;8.578;2023-01-20T15:30:35;3.50;99.90
23556;DHT22;11956;53.184;8.578;2023-01-20T15:33:36;3.50;99.90
23556;DHT22;11956;53.184;8.578;2023-01-20T15:36:37;3.40;99.90
23556;DHT22;11956;53.184;8.578;2023-01-20T15:39:40;3.20;99.90
23556;DHT22;11956;53.184;8.578;2023-01-20T15:42:41;3.10;99.90
23556;DHT22;11956;53.184;8.578;2023-01-20T15:45:43;3.00;99.90
23556;DHT22;11956;53.184;8.578;2023-01-20T15:48:45;2.90;99.90
23556;DHT22;11956;53.184;8.578;2023-01-20T15:51:46;2.80;99.90
23556;DHT22;11956;53.184;8.578;2023-01-20T15:54:46;2.70;99.90
23556;DHT22;11956;53.184;8.578;2023-01-20T15:57:50;2.60;99.90
23556;DHT22;11956;53.184;8.578;2023-01-20T16:00:52;2.50;99.90
23556;DHT22;11956;53.184;8.578;2023-01-20T16:03:55;2.40;99.90
23556;DHT22;11956;53.184;8.578;2023-01-20T16:06:56;2.40;99.90
23556;DHT22;11956;53.184;8.578;2023-01-20T16:09:57;2.20;99.90
23556;DHT22;11956;53.184;8.578;2023-01-20T16:12:58;2.10;99.90
23556;DHT22;11956;53.184;8.578;2023-01-20T16:16:00;1.90;99.90
23556;DHT22;11956;53.184;8.578;2023-01-20T16:19:01;1.80;99.90
23556;DHT22;11956;53.184;8.578;2023-01-20T16:22:02;1.70;99.90
23556;DHT22;11956;53.184;8.578;2023-01-20T16:25:03;1.60;99.90
23556;DHT22;11956;53.184;8.578;2023-01-20T16:28:17;1.50;99.90
23556;DHT22;11956;53.184;8.578;2023-01-20T16:31:21;1.40;99.90
23556;DHT22;11956;53.184;8.578;2023-01-20T16:34:22;1.30;99.90
23556;DHT22;11956;53.184;8.578;2023-01-20T16:37:23;1.20;99.90
23556;DHT22;11956;53.184;8.578;2023-01-20T16:40:24;1.10;99.90
23556;DHT22;11956;53.184;8.578;2023-01-20T16:43:25;1.00;99.90
23556;DHT22;11956;53.184;8.578;2023-01-20T16:46:28;0.90;99.90
23556;DHT22;11956;53.184;8.578;2023-01-20T16:49:31;0.80;99.90
23556;DHT22;11956;53.184;8.578;2023-01-20T16:52:31;0.70;99.90
23556;DHT22;11956;53.184;8.578;2023-01-20T16:55:32;0.70;99.90
23556;DHT22;11956;53.184;8.578;2023-01-20T16:58:33;0.60;99.90
23556;DHT22;11956;53.184;8.578;2023-01-20T17:01:34;0.50;99.90
23556;DHT22;11956;53.184;8.578;2023-01-20T17:04:36;0.40;99.90
23556;DHT22;11956;53.184;8.578;2023-01-20T17:07:37;0.40;99.90
23556;DHT22;11956;53.184;8.578;2023-01-20T17:10:38;0.30;99.90
23556;DHT22;11956;53.184;8.578;2023-01-20T17:13:39;0.30;99.90
23556;DHT22;11956;53.184;8.578;2023-01-20T17:16:39;0.20;99.90
23556;DHT22;11956;53.184;8.578;2023-01-20T17:19:41;0.20;99.90
23556;DHT22;11956;53.184;8.578;2023-01-20T17:22:42;0.20;99.90
23556;DHT22;11956;53.184;8.578;2023-01-20T17:25:43;0.20;99.90
23556;DHT22;11956;53.184;8.578;2023-01-20T17:28:44;0.10;99.90
23556;DHT22;11956;53.184;8.578;2023-01-20T17:31:46;0.00;99.90
23556;DHT22;11956;53.184;8.578;2023-01-20T17:34:47;0.00;99.90
23556;DHT22;11956;53.184;8.578;2023-01-20T17:37:48;-0.10;99.90
23556;DHT22;11956;53.184;8.578;2023-01-20T17:40:49;-0.10;99.90
23556;DHT22;11956;53.184;8.578;2023-01-20T17:43:50;-0.10;99.90
23556;DHT22;11956;53.184;8.578;2023-01-20T17:46:50;-0.10;99.90
23556;DHT22;11956;53.184;8.578;2023-01-20T17:49:51;-0.10;99.90
23556;DHT22;11956;53.184;8.578;2023-01-20T17:52:52;-0.20;99.90
23556;DHT22;11956;53.184;8.578;2023-01-20T17:55:53;-0.30;99.90
23556;DHT22;11956;53.184;8.578;2023-01-20T17:58:54;-0.30;99.90
23556;DHT22;11956;53.184;8.578;2023-01-20T18:01:55;-0.30;99.90
23556;DHT22;11956;53.184;8.578;2023-01-20T18:04:56;-0.30;99.90
23556;DHT22;11956;53.184;8.578;2023-01-20T18:07:57;-0.40;99.90
23556;DHT22;11956;53.184;8.578;2023-01-20T18:11:05;-0.40;99.90
23556;DHT22;11956;53.184;8.578;2023-01-20T18:14:10;-0.50;99.90
23556;DHT22;11956;53.184;8.578;2023-01-20T18:17:11;-0.50;99.90
23556;DHT22;11956;53.184;8.578;2023-01-20T18:20:12;-0.50;99.90
23556;DHT22;11956;53.184;8.578;2023-01-20T18:23:14;-0.50;99.90
23556;DHT22;11956;53.184;8.578;2023-01-20T18:26:17;-0.60;99.90
23556;DHT22;11956;53.184;8.578;2023-01-20T18:29:20;-0.60;99.90
23556;DHT22;11956;53.184;8.578;2023-01-20T18:32:21;-0.70;99.90
23556;DHT22;11956;53.184;8.578;2023-01-20T18:35:22;-0.70;99.90
23556;DHT22;11956;53.184;8.578;2023-01-20T18:38:23;-0.60;99.90
23556;DHT22;11956;53.184;8.578;2023-01-20T18:41:25;-0.60;99.90
23556;DHT22;11956;53.184;8.578;2023-01-20T18:44:27;-0.70;99.90
23556;DHT22;11956;53.184;8.578;2023-01-20T18:47:31;-0.70;99.90
23556;DHT22;11956;53.184;8.578;2023-01-20T18:50:32;-0.80;99.90
23556;DHT22;11956;53.184;8.578;2023-01-20T18:53:33;-0.80;99.90
23556;DHT22;11956;53.184;8.578;2023-01-20T18:56:34;-0.80;99.90
23556;DHT22;11956;53.184;8.578;2023-01-20T18:59:35;-0.80;99.90
23556;DHT22;11956;53.184;8.578;2023-01-20T19:02:36;-0.80;99.90
23556;DHT22;11956;53.184;8.578;2023-01-20T19:05:37;-0.90;99.90
23556;DHT22;11956;53.184;8.578;2023-01-20T19:08:39;-0.80;99.90
23556;DHT22;11956;53.184;8.578;2023-01-20T19:11:41;-0.80;99.90
23556;DHT22;11956;53.184;8.578;2023-01-20T19:14:42;-0.70;99.90
23556;DHT22;11956;53.184;8.578;2023-01-20T19:17:43;-0.70;99.90
23556;DHT22;11956;53.184;8.578;2023-01-20T19:20:44;-0.70;99.90
23556;DHT22;11956;53.184;8.578;2023-01-20T19:23:49;-0.60;99.90
23556;DHT22;11956;53.184;8.578;2023-01-20T19:26:51;-0.60;99.90
23556;DHT22;11956;53.184;8.578;2023-01-20T19:29:52;-0.60;99.90
23556;DHT22;11956;53.184;8.578;2023-01-20T19:32:53;-0.50;99.90
23556;DHT22;11956;53.184;8.578;2023-01-20T19:35:57;-0.60;99.90
23556;DHT22;11956;53.184;8.578;2023-01-20T19:38:58;-0.50;99.90
23556;DHT22;11956;53.184;8.578;2023-01-20T19:42:00;-0.40;99.90
23556;DHT22;11956;53.184;8.578;2023-01-20T19:45:01;-0.40;99.90
23556;DHT22;11956;53.184;8.578;2023-01-20T19:48:02;-0.30;99.90
23556;DHT22;11956;53.184;8.578;2023-01-20T19:51:09;-0.20;99.90
23556;DHT22;11956;53.184;8.578;2023-01-20T19:54:12;-0.20;99.90
23556;DHT22;11956;53.184;8.578;2023-01-20T19:57:13;-0.20;99.90
23556;DHT22;11956;53.184;8.578;2023-01-20T20:00:14;-0.20;99.90
23556;DHT22;11956;53.184;8.578;2023-01-20T20:03:16;-0.20;99.90
23556;DHT22;11956;53.184;8.578;2023-01-20T20:06:34;-0.20;99.90
23556;DHT22;11956;53.184;8.578;2023-01-20T20:09:37;-0.20;99.90
23556;DHT22;11956;53.184;8.578;2023-01-20T20:12:38;-0.20;99.90
23556;DHT22;11956;53.184;8.578;2023-01-20T20:15:39;-0.20;99.90
23556;DHT22;11956;53.184;8.578;2023-01-20T20:18:40;-0.20;99.90
23556;DHT22;11956;53.184;8.578;2023-01-20T20:21:42;-0.20;99.90
23556;DHT22;11956;53.184;8.578;2023-01-20T20:24:43;-0.20;99.90
23556;DHT22;11956;53.184;8.578;2023-01-20T20:27:45;-0.20;99.90
23556;DHT22;11956;53.184;8.578;2023-01-20T20:30:45;-0.20;99.90
23556;DHT22;11956;53.184;8.578;2023-01-20T20:33:46;-0.10;99.90
23556;DHT22;11956;53.184;8.578;2023-01-20T20:36:47;-0.10;99.90
23556;DHT22;11956;53.184;8.578;2023-01-20T20:39:48;-0.10;99.90
23556;DHT22;11956;53.184;8.578;2023-01-20T20:42:49;-0.10;99.90
23556;DHT22;11956;53.184;8.578;2023-01-20T20:45:51;-0.10;99.90
23556;DHT22;11956;53.184;8.578;2023-01-20T20:48:53;-0.10;99.90
23556;DHT22;11956;53.184;8.578;2023-01-20T20:51:58;-0.10;99.90
23556;DHT22;11956;53.184;8.578;2023-01-20T20:54:59;-0.10;99.90
23556;DHT22;11956;53.184;8.578;2023-01-20T20:58:00;-0.10;99.90
23556;DHT22;11956;53.184;8.578;2023-01-20T21:01:02;-0.10;99.90
23556;DHT22;11956;53.184;8.578;2023-01-20T21:04:03;-0.10;99.90
23556;DHT22;11956;53.184;8.578;2023-01-20T21:07:05;-0.10;99.90
23556;DHT22;11956;53.184;8.578;2023-01-20T21:10:06;-0.20;99.90
23556;DHT22;11956;53.184;8.578;2023-01-20T21:13:09;-0.10;99.90
23556;DHT22;11956;53.184;8.578;2023-01-20T21:16:14;-0.10;99.90
23556;DHT22;11956;53.184;8.578;2023-01-20T21:19:16;0.00;99.90
23556;DHT22;11956;53.184;8.578;2023-01-20T21:22:17;0.00;99.90
23556;DHT22;11956;53.184;8.578;2023-01-20T21:25:18;0.10;99.90